Archer, Illinois
Current Conditions -  °F | °C
As of 1:52 AM on Friday 28 Nov 2014 (Local Time) from KSPI Reporting Station
Broken Clouds Broken Clouds  
Wind Chill: 10°   Ceiling: 6000
Heat Index: 18°   Visibility: 10mi
Dew Point:   Wind: 6mph
Humidity: 68%   Direction: 120°ESE
Pressure: 30.39"   Gusts: NA
Location:  39.854°N, 89.6295°W
Report Text: KSPI 280752Z AUTO 12005KT 10SM BKN060 M08/M13 A3039 RMK AO2 SLP301 T10781128
Loading
Personal Weather Stations






























Interactive Weather Map New forecast layout! Learn more

10-Day Weather Forecast

Advertisements
Track Severe Weather on mobile